createdAt,value
2022-12-01T00:00:21.550Z,64.17
2022-12-01T00:02:51.526Z,61.70
2022-12-01T00:05:25.160Z,60.53
2022-12-01T00:07:55.119Z,60.90
2022-12-01T00:10:28.848Z,59.70
2022-12-01T00:13:00.451Z,59.53
2022-12-01T00:15:34.589Z,60.83
2022-12-01T00:18:05.477Z,60.17
2022-12-01T00:20:40.203Z,60.67
2022-12-01T00:23:10.037Z,60.07
2022-12-01T00:25:39.902Z,59.10
2022-12-01T00:28:09.759Z,57.17
2022-12-01T00:30:39.624Z,58.40
2022-12-01T00:33:09.466Z,55.40
2022-12-01T00:35:41.901Z,55.67
2022-12-01T00:38:11.747Z,61.90
2022-12-01T00:40:41.614Z,66.47
2022-12-01T00:43:12.556Z,70.10
2022-12-01T00:45:42.429Z,68.83
2022-12-01T00:48:12.386Z,75.97
2022-12-01T00:50:45.220Z,75.57
2022-12-01T00:53:15.102Z,76.87
2022-12-01T00:55:44.958Z,80.23
2022-12-01T00:58:14.830Z,81.90
2022-12-01T01:00:44.733Z,83.87
2022-12-01T01:03:14.906Z,80.30
2022-12-01T01:05:47.379Z,80.63
2022-12-01T01:08:17.916Z,83.47
2022-12-01T01:10:50.073Z,85.40
2022-12-01T01:13:20.317Z,88.77
2022-12-01T01:16:00.633Z,87.50
2022-12-01T01:18:30.982Z,86.70
2022-12-01T01:21:05.202Z,88.97
2022-12-01T01:23:35.219Z,85.83
2022-12-01T01:26:06.314Z,82.77
2022-12-01T01:28:36.223Z,82.60
2022-12-01T01:31:08.598Z,83.30
2022-12-01T01:33:38.986Z,85.17
2022-12-01T01:36:12.380Z,78.53
2022-12-01T01:38:42.247Z,79.77
2022-12-01T01:41:12.248Z,81.97
2022-12-01T01:43:45.385Z,79.87
2022-12-01T01:46:17.637Z,79.10
2022-12-01T01:48:52.519Z,81.00
2022-12-01T01:51:29.315Z,77.77
2022-12-01T01:54:04.207Z,78.80
2022-12-01T01:56:34.267Z,76.10
2022-12-01T01:59:04.660Z,75.47
2022-12-01T02:01:34.858Z,73.83
2022-12-01T02:04:05.855Z,75.87
2022-12-01T02:06:38.578Z,77.57
2022-12-01T02:09:08.410Z,74.63
2022-12-01T02:12:03.882Z,71.20
2022-12-01T02:15:00.783Z,73.43
2022-12-01T02:17:41.725Z,71.37
2022-12-01T02:20:34.959Z,75.10
2022-12-01T02:23:47.997Z,72.50
2022-12-01T02:26:36.770Z,69.70
2022-12-01T02:29:28.707Z,74.03
2022-12-01T02:32:10.581Z,71.77
2022-12-01T02:34:46.833Z,73.70
2022-12-01T02:37:27.059Z,70.97
2022-12-01T02:40:04.646Z,70.47
2022-12-01T02:42:56.595Z,68.67
2022-12-01T02:45:35.951Z,69.20
2022-12-01T02:48:14.603Z,71.27
2022-12-01T02:50:46.662Z,69.40
2022-12-01T02:53:20.866Z,72.90
2022-12-01T02:55:54.353Z,70.77
2022-12-01T02:58:24.485Z,71.23
2022-12-01T03:01:21.724Z,69.73
2022-12-01T03:04:05.503Z,69.80
2022-12-01T03:06:49.999Z,68.70
2022-12-01T03:09:32.262Z,67.00
2022-12-01T03:12:13.040Z,70.13
2022-12-01T03:14:48.381Z,68.80
2022-12-01T03:17:21.159Z,68.23
2022-12-01T03:19:58.892Z,70.97
2022-12-01T03:22:31.717Z,69.47
2022-12-01T03:25:05.325Z,72.30
2022-12-01T03:27:41.778Z,69.23
2022-12-01T03:30:19.279Z,67.67
2022-12-01T03:32:52.493Z,66.80
2022-12-01T03:35:32.111Z,68.37
2022-12-01T03:38:08.537Z,71.27
2022-12-01T03:40:40.737Z,69.77
2022-12-01T03:43:14.675Z,71.37
2022-12-01T03:45:55.467Z,67.87
2022-12-01T03:48:26.462Z,64.50
2022-12-01T03:51:07.344Z,65.80
2022-12-01T03:53:45.468Z,62.80
2022-12-01T03:56:18.721Z,66.47
2022-12-01T03:58:52.245Z,68.17
2022-12-01T04:01:22.489Z,67.67
2022-12-01T04:03:52.497Z,60.57
2022-12-01T04:06:24.928Z,69.10
2022-12-01T04:08:54.778Z,70.00
2022-12-01T04:11:37.006Z,67.70
2022-12-01T04:14:06.831Z,64.67
2022-12-01T04:16:36.736Z,66.73
2022-12-01T04:19:06.635Z,64.23
2022-12-01T04:21:39.092Z,65.20
2022-12-01T04:24:09.696Z,65.43
2022-12-01T04:26:40.578Z,66.73
2022-12-01T04:29:12.960Z,67.23
2022-12-01T04:31:43.020Z,67.70
2022-12-01T04:34:13.684Z,67.90
2022-12-01T04:36:46.340Z,64.60
2022-12-01T04:39:16.426Z,61.57
2022-12-01T04:41:46.267Z,66.93
2022-12-01T04:44:16.490Z,66.50
2022-12-01T04:46:46.423Z,67.17
2022-12-01T04:49:16.310Z,69.27
2022-12-01T04:51:48.847Z,68.20
2022-12-01T04:54:19.225Z,67.37
2022-12-01T04:56:49.099Z,67.30
2022-12-01T04:59:18.986Z,66.30
2022-12-01T05:01:49.467Z,62.97
2022-12-01T05:04:19.545Z,69.43
2022-12-01T05:06:52.009Z,69.77
2022-12-01T05:09:21.870Z,63.60
2022-12-01T05:11:51.705Z,66.70
2022-12-01T05:14:21.595Z,68.90
2022-12-01T05:16:51.510Z,67.97
2022-12-01T05:19:33.848Z,64.87
2022-12-01T05:22:06.346Z,67.57
2022-12-01T05:24:36.173Z,65.90
2022-12-01T05:27:06.090Z,66.07
2022-12-01T05:29:35.957Z,67.67
2022-12-01T05:32:06.021Z,70.27
2022-12-01T05:34:35.855Z,67.30
2022-12-01T05:37:08.450Z,68.20
2022-12-01T05:39:40.272Z,70.27
2022-12-01T05:42:10.101Z,69.17
2022-12-01T05:44:39.960Z,67.17
2022-12-01T05:47:09.819Z,65.53
2022-12-01T05:49:39.676Z,65.27
2022-12-01T05:52:12.225Z,65.37
2022-12-01T05:54:42.069Z,68.53
2022-12-01T05:57:11.888Z,71.70
2022-12-01T05:59:41.795Z,67.17
2022-12-01T06:02:11.670Z,64.13
2022-12-01T06:04:41.518Z,67.90
2022-12-01T06:07:13.952Z,68.40
2022-12-01T06:09:45.280Z,67.20
2022-12-01T06:12:15.516Z,69.83
2022-12-01T06:14:45.390Z,67.27
2022-12-01T06:17:15.227Z,66.47
2022-12-01T06:19:48.381Z,65.77
2022-12-01T06:22:21.045Z,75.40
2022-12-01T06:24:50.883Z,76.97
2022-12-01T06:27:20.738Z,79.27
2022-12-01T06:29:51.354Z,82.20
2022-12-01T06:32:21.484Z,83.37
2022-12-01T06:34:51.330Z,81.17
2022-12-01T06:37:23.777Z,84.33
2022-12-01T06:39:53.642Z,84.30
2022-12-01T06:42:23.847Z,82.77
2022-12-01T06:44:53.691Z,85.73
2022-12-01T06:47:23.604Z,83.53
2022-12-01T06:49:53.499Z,85.87
2022-12-01T06:52:26.001Z,83.80
2022-12-01T06:54:55.847Z,84.77
2022-12-01T06:57:25.806Z,84.27
2022-12-01T06:59:56.203Z,84.07
2022-12-01T07:02:26.640Z,85.13
2022-12-01T07:04:56.530Z,83.47
2022-12-01T07:07:29.030Z,85.63
2022-12-01T07:09:58.970Z,83.27
2022-12-01T07:12:28.854Z,83.30
2022-12-01T07:14:58.700Z,85.13
2022-12-01T07:17:28.538Z,80.13
2022-12-01T07:19:58.401Z,82.33
2022-12-01T07:22:32.946Z,81.10
2022-12-01T07:25:03.048Z,80.50
2022-12-01T07:27:34.375Z,80.63
2022-12-01T07:30:09.112Z,76.17
2022-12-01T07:32:41.100Z,71.70
2022-12-01T07:35:11.661Z,75.40
2022-12-01T07:37:44.309Z,71.27
2022-12-01T07:40:15.290Z,74.97
2022-12-01T07:42:46.174Z,72.37
2022-12-01T07:45:16.070Z,71.57
2022-12-01T07:47:46.201Z,70.90
2022-12-01T07:50:16.112Z,67.53
2022-12-01T07:52:52.676Z,65.50
2022-12-01T07:55:24.686Z,70.17
2022-12-01T07:57:55.596Z,63.00
2022-12-01T08:00:25.937Z,64.77
2022-12-01T08:02:55.927Z,66.40
2022-12-01T08:05:26.871Z,64.80
2022-12-01T08:08:05.835Z,66.47
2022-12-01T08:10:40.555Z,66.10
2022-12-01T08:13:17.015Z,65.60
2022-12-01T08:15:47.383Z,65.93
2022-12-01T08:18:17.258Z,67.00
2022-12-01T08:20:50.369Z,66.10
2022-12-01T08:23:22.991Z,64.90
2022-12-01T08:25:57.633Z,64.10
2022-12-01T08:28:27.536Z,64.47
2022-12-01T08:31:01.678Z,63.87
2022-12-01T08:33:32.004Z,62.30
2022-12-01T08:36:07.069Z,63.37
2022-12-01T08:38:39.692Z,63.17
2022-12-01T08:41:15.119Z,62.37
2022-12-01T08:43:57.907Z,62.27
2022-12-01T08:46:29.670Z,61.27
2022-12-01T08:48:59.999Z,59.07
2022-12-01T08:51:34.558Z,59.43
2022-12-01T08:54:14.135Z,61.97
2022-12-01T08:56:46.494Z,60.03
2022-12-01T08:59:16.719Z,59.00
2022-12-01T09:01:55.105Z,58.93
2022-12-01T09:04:29.521Z,56.90
2022-12-01T09:07:00.639Z,57.30
2022-12-01T09:09:38.414Z,59.40
2022-12-01T09:12:10.054Z,56.50
2022-12-01T09:14:41.795Z,58.57
2022-12-01T09:17:12.190Z,57.20
2022-12-01T09:19:42.040Z,57.67
2022-12-01T09:22:15.456Z,57.87
2022-12-01T09:24:49.990Z,57.10
2022-12-01T09:27:19.856Z,52.67
2022-12-01T09:29:53.477Z,52.87
2022-12-01T09:32:24.394Z,52.77
2022-12-01T09:34:54.318Z,52.83
2022-12-01T09:37:24.229Z,53.20
2022-12-01T09:39:56.763Z,51.30
2022-12-01T09:42:35.223Z,56.83
2022-12-01T09:45:06.702Z,50.37
2022-12-01T09:47:38.701Z,53.83
2022-12-01T09:50:18.908Z,53.90
2022-12-01T09:52:52.637Z,50.40
2022-12-01T09:55:26.622Z,49.97
2022-12-01T09:57:58.115Z,49.57
2022-12-01T10:00:31.267Z,50.90
2022-12-01T10:03:14.351Z,48.20
2022-12-01T10:06:25.267Z,48.53
2022-12-01T10:08:53.130Z,46.87
2022-12-01T10:11:36.910Z,45.17
2022-12-01T10:14:19.298Z,48.03
2022-12-01T10:16:58.268Z,46.97
2022-12-01T10:19:35.483Z,43.50
2022-12-01T10:22:43.590Z,45.77
2022-12-01T10:25:23.326Z,47.07
2022-12-01T10:28:14.214Z,45.03
2022-12-01T10:30:52.677Z,45.83
2022-12-01T10:33:26.905Z,50.40
2022-12-01T10:35:57.076Z,47.97
2022-12-01T10:38:35.025Z,47.83
2022-12-01T10:41:08.166Z,50.40
2022-12-01T10:43:45.121Z,49.10
2022-12-01T10:46:24.264Z,48.70
2022-12-01T10:48:58.976Z,50.73
2022-12-01T10:51:32.514Z,49.63
2022-12-01T10:54:11.513Z,49.20
2022-12-01T10:56:43.808Z,50.77
2022-12-01T10:59:26.467Z,50.40
2022-12-01T11:01:57.351Z,50.30
2022-12-01T11:04:45.227Z,48.70
2022-12-01T11:07:21.183Z,51.93
2022-12-01T11:10:08.508Z,49.20
2022-12-01T11:12:39.524Z,50.40
2022-12-01T11:15:23.863Z,46.13
2022-12-01T11:18:01.262Z,48.70
2022-12-01T11:20:36.027Z,48.90
2022-12-01T11:23:25.508Z,48.87
2022-12-01T11:26:12.528Z,50.00
2022-12-01T11:28:56.316Z,49.23
2022-12-01T11:31:42.104Z,48.93
2022-12-01T11:34:22.236Z,47.10
2022-12-01T11:36:55.475Z,50.03
2022-12-01T11:39:31.900Z,50.40
2022-12-01T11:42:04.965Z,50.07
2022-12-01T11:44:51.228Z,55.73
2022-12-01T11:47:30.530Z,55.07
2022-12-01T11:50:02.712Z,55.23
2022-12-01T11:52:36.651Z,53.00
2022-12-01T11:55:24.702Z,51.47
2022-12-01T11:58:04.553Z,57.17
2022-12-01T12:00:46.659Z,54.47
2022-12-01T12:03:31.956Z,50.33
2022-12-01T12:09:45.060Z,49.37
2022-12-01T12:12:25.164Z,48.77
2022-12-01T12:15:07.042Z,46.53
2022-12-01T12:17:57.897Z,49.80
2022-12-01T12:20:44.916Z,48.43
2022-12-01T12:23:40.165Z,48.10
2022-12-01T12:26:20.128Z,49.20
2022-12-01T12:29:19.684Z,49.90
2022-12-01T12:32:00.561Z,46.80
2022-12-01T12:34:43.012Z,47.23
2022-12-01T12:37:24.972Z,45.00
2022-12-01T12:40:17.514Z,44.37
2022-12-01T12:42:59.010Z,44.67
2022-12-01T12:45:41.992Z,44.40
2022-12-01T12:48:30.608Z,130.63
2022-12-01T12:51:13.243Z,46.47
2022-12-01T12:53:50.160Z,49.80
2022-12-01T12:56:25.323Z,50.72
2022-12-01T12:59:00.991Z,52.07
2022-12-01T13:01:37.291Z,47.47
2022-12-01T13:04:12.402Z,46.17
2022-12-01T13:06:47.598Z,47.60
2022-12-01T13:09:25.228Z,47.27
2022-12-01T13:12:02.187Z,49.30
2022-12-01T13:14:37.170Z,49.63
2022-12-01T13:17:17.215Z,50.10
2022-12-01T13:19:49.083Z,49.10
2022-12-01T13:22:21.886Z,49.60
2022-12-01T13:24:56.512Z,50.27
2022-12-01T13:27:36.967Z,50.07
2022-12-01T13:30:19.207Z,49.97
2022-12-01T13:32:52.063Z,45.80
2022-12-01T13:35:27.908Z,42.00
2022-12-01T13:38:29.756Z,46.93
2022-12-01T13:41:24.560Z,43.00
2022-12-01T13:44:03.687Z,44.90
2022-12-01T13:46:52.362Z,47.13
2022-12-01T13:49:42.683Z,44.70
2022-12-01T13:52:29.159Z,48.83
2022-12-01T13:55:22.357Z,46.93
2022-12-01T13:58:37.263Z,51.00
2022-12-01T14:01:37.068Z,47.10
2022-12-01T14:04:33.517Z,48.27
2022-12-01T14:07:37.801Z,45.80
2022-12-01T14:10:27.489Z,45.93
2022-12-01T14:13:04.616Z,45.03
2022-12-01T14:15:43.890Z,44.53
2022-12-01T14:18:33.954Z,46.13
2022-12-01T14:21:10.507Z,46.53
2022-12-01T14:24:02.256Z,46.60
2022-12-01T14:26:34.793Z,45.33
2022-12-01T14:29:13.600Z,48.33
2022-12-01T14:32:22.855Z,48.07
2022-12-01T14:35:06.193Z,46.40
2022-12-01T14:37:45.332Z,50.80
2022-12-01T14:40:21.494Z,47.40
2022-12-01T14:43:09.045Z,44.15
2022-12-01T14:45:52.552Z,50.00
2022-12-01T14:48:30.850Z,49.97
2022-12-01T14:51:14.879Z,50.83
2022-12-01T14:53:53.527Z,52.50
2022-12-01T14:56:25.411Z,54.97
2022-12-01T14:58:59.365Z,49.07
2022-12-01T15:01:34.134Z,48.57
2022-12-01T15:04:07.317Z,49.80
2022-12-01T15:06:40.358Z,47.77
2022-12-01T15:09:33.950Z,57.33
2022-12-01T15:12:07.794Z,54.57
2022-12-01T15:14:49.750Z,52.63
2022-12-01T15:17:33.026Z,51.97
2022-12-01T15:20:03.482Z,50.70
2022-12-01T15:22:36.486Z,51.03
2022-12-01T15:25:17.664Z,51.60
2022-12-01T15:27:48.663Z,62.37
2022-12-01T15:30:20.969Z,57.20
2022-12-01T15:32:54.822Z,53.33
2022-12-01T15:35:29.773Z,56.83
2022-12-01T15:38:01.147Z,56.43
2022-12-01T15:43:26.943Z,54.50
2022-12-01T15:46:01.175Z,54.57
2022-12-01T15:48:34.368Z,52.17
2022-12-01T15:51:09.271Z,54.40
2022-12-01T15:53:42.798Z,54.27
2022-12-01T15:56:17.248Z,51.73
2022-12-01T15:58:50.039Z,52.10
2022-12-01T16:01:22.406Z,59.80
2022-12-01T16:03:56.510Z,56.47
2022-12-01T16:06:34.408Z,60.53
2022-12-01T16:09:09.454Z,53.70
2022-12-01T16:12:08.630Z,54.77
2022-12-01T16:14:39.819Z,50.63
2022-12-01T16:17:14.151Z,48.67
2022-12-01T16:19:45.523Z,47.03
2022-12-01T16:22:20.595Z,47.33
2022-12-01T16:24:53.966Z,72.13
2022-12-01T16:27:28.734Z,57.30
2022-12-01T16:30:02.071Z,49.17
2022-12-01T16:32:40.818Z,50.23
2022-12-01T16:35:26.459Z,48.60
2022-12-01T16:37:59.908Z,51.30
2022-12-01T16:40:29.848Z,51.27
2022-12-01T16:43:02.346Z,48.87
2022-12-01T16:45:35.551Z,47.00
2022-12-01T16:48:09.258Z,48.07
2022-12-01T16:50:41.509Z,47.87
2022-12-01T16:53:14.091Z,48.33
2022-12-01T16:55:49.378Z,47.20
2022-12-01T16:58:23.285Z,47.67
2022-12-01T17:00:55.226Z,49.37
2022-12-01T17:03:27.135Z,47.53
2022-12-01T17:05:58.414Z,48.20
2022-12-01T17:08:28.480Z,46.43
2022-12-01T17:10:58.389Z,48.30
2022-12-01T17:13:30.886Z,49.77
2022-12-01T17:16:00.766Z,47.33
2022-12-01T17:18:30.700Z,51.47
2022-12-01T17:21:02.007Z,48.50
2022-12-01T17:23:32.883Z,50.07
2022-12-01T17:26:03.607Z,50.70
2022-12-01T17:28:36.125Z,52.13
2022-12-01T17:31:06.695Z,50.93
2022-12-01T17:33:37.371Z,51.53
2022-12-01T17:36:09.584Z,52.77
2022-12-01T17:38:40.735Z,52.67
2022-12-01T17:41:12.355Z,57.50
2022-12-01T17:43:45.163Z,56.30
2022-12-01T17:46:15.961Z,56.23
2022-12-01T17:48:47.731Z,54.30
2022-12-01T17:51:18.441Z,54.27
2022-12-01T17:53:48.332Z,57.03
2022-12-01T17:56:19.594Z,55.87
2022-12-01T17:58:52.243Z,54.03
2022-12-01T18:01:28.600Z,55.00
2022-12-01T18:04:01.044Z,55.53
2022-12-01T18:06:31.168Z,55.00
2022-12-01T18:09:02.910Z,54.27
2022-12-01T18:11:32.818Z,56.53
2022-12-01T18:14:05.315Z,54.73
2022-12-01T18:16:36.122Z,52.00
2022-12-01T18:19:06.250Z,58.20
2022-12-01T18:21:36.070Z,56.70
2022-12-01T18:24:08.983Z,55.13
2022-12-01T18:26:40.457Z,53.77
2022-12-01T18:29:16.087Z,57.50
2022-12-01T18:31:46.100Z,56.80
2022-12-01T18:34:16.185Z,54.67
2022-12-01T18:36:47.074Z,57.97
2022-12-01T18:39:16.944Z,56.30
2022-12-01T18:41:47.062Z,58.43
2022-12-01T18:44:19.473Z,55.87
2022-12-01T18:46:49.470Z,58.07
2022-12-01T18:49:19.371Z,65.50
2022-12-01T18:51:49.207Z,60.10
2022-12-01T18:54:19.630Z,57.70
2022-12-01T18:56:55.121Z,58.67
2022-12-01T18:59:28.878Z,59.13
2022-12-01T19:01:58.830Z,60.70
2022-12-01T19:04:29.147Z,59.10
2022-12-01T19:06:58.940Z,64.30
2022-12-01T19:09:28.828Z,65.03
2022-12-01T19:12:01.626Z,64.40
2022-12-01T19:14:34.112Z,60.53
2022-12-01T19:17:04.043Z,62.13
2022-12-01T19:19:37.644Z,64.10
2022-12-01T19:22:07.708Z,63.43
2022-12-01T19:24:37.763Z,62.10
2022-12-01T19:27:07.606Z,61.73
2022-12-01T19:29:40.106Z,61.10
2022-12-01T19:32:11.089Z,62.63
2022-12-01T19:34:41.047Z,64.17
2022-12-01T19:37:11.002Z,60.87
2022-12-01T19:39:41.183Z,58.20
2022-12-01T19:42:12.422Z,61.00
2022-12-01T19:44:46.074Z,62.23
2022-12-01T19:47:22.246Z,63.00
2022-12-01T19:49:52.663Z,62.97
2022-12-01T19:52:22.572Z,59.23
2022-12-01T19:54:53.086Z,62.90
2022-12-01T19:57:23.324Z,59.60
2022-12-01T19:59:55.805Z,60.10
2022-12-01T20:02:29.025Z,62.40
2022-12-01T20:04:59.316Z,61.50
2022-12-01T20:07:29.228Z,61.60
2022-12-01T20:09:59.207Z,57.47
2022-12-01T20:12:29.179Z,62.33
2022-12-01T20:15:01.635Z,60.83
2022-12-01T20:17:31.524Z,61.30
2022-12-01T20:20:03.192Z,58.83
2022-12-01T20:22:34.711Z,60.33
2022-12-01T20:25:07.404Z,59.17
2022-12-01T20:27:37.628Z,62.47
2022-12-01T20:30:12.184Z,65.03
2022-12-01T20:32:42.104Z,57.37
2022-12-01T20:35:15.664Z,59.60
2022-12-01T20:37:45.694Z,65.57
2022-12-01T20:40:16.245Z,63.27
2022-12-01T20:42:46.125Z,65.97
2022-12-01T20:45:18.756Z,63.37
2022-12-01T20:47:48.634Z,64.30
2022-12-01T20:50:18.908Z,61.50
2022-12-01T20:52:48.753Z,61.90
2022-12-01T20:55:18.718Z,66.83
2022-12-01T20:57:48.612Z,63.83
2022-12-01T21:00:22.042Z,59.30
2022-12-01T21:02:52.093Z,65.80
2022-12-01T21:05:22.039Z,62.10
2022-12-01T21:07:52.376Z,66.47
2022-12-01T21:10:23.761Z,62.33
2022-12-01T21:13:10.317Z,60.27
2022-12-01T21:15:52.061Z,64.07
2022-12-01T21:18:26.726Z,61.10
2022-12-01T21:21:04.334Z,62.40
2022-12-01T21:23:34.282Z,61.90
2022-12-01T21:26:04.554Z,59.17
2022-12-01T21:28:34.689Z,62.90
2022-12-01T21:31:14.916Z,62.70
2022-12-01T21:33:45.510Z,60.50
2022-12-01T21:36:18.843Z,58.37
2022-12-01T21:38:51.042Z,60.90
2022-12-01T21:41:27.709Z,61.07
2022-12-01T21:44:05.441Z,58.67
2022-12-01T21:46:41.232Z,61.23
2022-12-01T21:49:22.634Z,60.90
2022-12-01T21:51:55.374Z,62.00
2022-12-01T21:54:25.646Z,59.93
2022-12-01T21:57:00.596Z,61.30
2022-12-01T21:59:30.999Z,57.07
2022-12-01T22:02:17.342Z,61.40
2022-12-01T22:04:47.488Z,55.10
2022-12-01T22:07:18.479Z,55.23
2022-12-01T22:09:48.509Z,58.30
2022-12-01T22:12:31.219Z,54.80
2022-12-01T22:15:04.387Z,57.97
2022-12-01T22:17:40.534Z,58.27
2022-12-01T22:20:24.023Z,54.23
2022-12-01T22:22:59.986Z,56.13
2022-12-01T22:25:30.490Z,56.67
2022-12-01T22:28:01.576Z,54.50
2022-12-01T22:30:36.754Z,56.47
2022-12-01T22:33:19.447Z,55.77
2022-12-01T22:35:51.225Z,53.50
2022-12-01T22:38:33.992Z,55.93
2022-12-01T22:41:08.584Z,53.30
2022-12-01T22:43:50.778Z,53.93
2022-12-01T22:46:27.755Z,53.33
2022-12-01T22:49:02.030Z,53.20
2022-12-01T22:51:42.443Z,52.20
2022-12-01T22:54:35.831Z,52.07
2022-12-01T22:57:14.757Z,52.47
2022-12-01T22:59:47.846Z,50.07
2022-12-01T23:02:23.884Z,49.93
2022-12-01T23:05:00.005Z,52.27
2022-12-01T23:07:33.720Z,49.20
2022-12-01T23:10:12.244Z,50.20
2022-12-01T23:12:42.671Z,47.53
2022-12-01T23:15:30.184Z,46.97
2022-12-01T23:18:02.866Z,46.67
2022-12-01T23:20:37.033Z,47.93
2022-12-01T23:23:09.866Z,46.27
2022-12-01T23:25:39.763Z,46.33
2022-12-01T23:28:11.203Z,47.37
2022-12-01T23:30:44.553Z,44.27
2022-12-01T23:33:20.011Z,42.87
2022-12-01T23:35:56.618Z,42.30
2022-12-01T23:38:32.198Z,40.97
2022-12-01T23:41:04.412Z,44.80
2022-12-01T23:43:37.543Z,42.40
2022-12-01T23:46:10.683Z,41.50
2022-12-01T23:48:44.392Z,42.83
2022-12-01T23:51:21.464Z,40.90
2022-12-01T23:53:51.843Z,41.80
2022-12-01T23:56:24.733Z,46.53
2022-12-01T23:58:55.597Z,48.20
